sensor_id;sensor_type;location;lat;lon;timestamp;P1;durP1;ratioP1;P2;durP2;ratioP2
15287;SDS011;7745;48.708;9.026;2024-02-26T00:02:10;3.90;;;2.43;;
15287;SDS011;7745;48.708;9.026;2024-02-26T00:04:37;3.40;;;2.10;;
15287;SDS011;7745;48.708;9.026;2024-02-26T00:07:05;3.67;;;1.93;;
15287;SDS011;7745;48.708;9.026;2024-02-26T00:09:32;3.17;;;1.97;;
15287;SDS011;7745;48.708;9.026;2024-02-26T00:12:00;3.00;;;2.20;;
15287;SDS011;7745;48.708;9.026;2024-02-26T00:14:28;2.73;;;1.90;;
15287;SDS011;7745;48.708;9.026;2024-02-26T00:16:55;4.23;;;2.10;;
15287;SDS011;7745;48.708;9.026;2024-02-26T00:19:22;3.30;;;2.40;;
15287;SDS011;7745;48.708;9.026;2024-02-26T00:21:49;2.47;;;1.90;;
15287;SDS011;7745;48.708;9.026;2024-02-26T00:24:17;2.50;;;2.10;;
15287;SDS011;7745;48.708;9.026;2024-02-26T00:26:44;3.90;;;2.20;;
15287;SDS011;7745;48.708;9.026;2024-02-26T00:29:11;1.90;;;1.50;;
15287;SDS011;7745;48.708;9.026;2024-02-26T00:31:38;2.70;;;1.80;;
15287;SDS011;7745;48.708;9.026;2024-02-26T00:34:04;2.17;;;1.50;;
15287;SDS011;7745;48.708;9.026;2024-02-26T00:36:31;2.50;;;1.80;;
15287;SDS011;7745;48.708;9.026;2024-02-26T00:38:58;3.20;;;1.50;;
15287;SDS011;7745;48.708;9.026;2024-02-26T00:41:26;1.97;;;1.40;;
15287;SDS011;7745;48.708;9.026;2024-02-26T00:43:53;3.17;;;1.90;;
15287;SDS011;7745;48.708;9.026;2024-02-26T00:46:20;2.87;;;1.77;;
15287;SDS011;7745;48.708;9.026;2024-02-26T00:48:47;3.57;;;1.90;;
15287;SDS011;7745;48.708;9.026;2024-02-26T00:51:14;3.07;;;1.63;;
15287;SDS011;7745;48.708;9.026;2024-02-26T00:53:40;2.50;;;1.53;;
15287;SDS011;7745;48.708;9.026;2024-02-26T00:56:07;2.87;;;1.60;;
15287;SDS011;7745;48.708;9.026;2024-02-26T00:58:36;1.97;;;1.20;;
15287;SDS011;7745;48.708;9.026;2024-02-26T01:01:02;1.63;;;1.50;;
15287;SDS011;7745;48.708;9.026;2024-02-26T01:03:29;1.10;;;0.90;;
15287;SDS011;7745;48.708;9.026;2024-02-26T01:05:56;1.53;;;1.00;;
15287;SDS011;7745;48.708;9.026;2024-02-26T01:08:23;1.43;;;1.20;;
15287;SDS011;7745;48.708;9.026;2024-02-26T01:10:50;3.73;;;1.30;;
15287;SDS011;7745;48.708;9.026;2024-02-26T01:13:16;2.87;;;1.17;;
15287;SDS011;7745;48.708;9.026;2024-02-26T01:15:44;1.40;;;0.90;;
15287;SDS011;7745;48.708;9.026;2024-02-26T01:18:11;1.80;;;1.07;;
15287;SDS011;7745;48.708;9.026;2024-02-26T01:20:38;1.73;;;1.33;;
15287;SDS011;7745;48.708;9.026;2024-02-26T01:23:05;2.00;;;1.27;;
15287;SDS011;7745;48.708;9.026;2024-02-26T01:25:32;4.03;;;1.40;;
15287;SDS011;7745;48.708;9.026;2024-02-26T01:27:58;1.57;;;1.20;;
15287;SDS011;7745;48.708;9.026;2024-02-26T01:30:25;2.80;;;1.20;;
15287;SDS011;7745;48.708;9.026;2024-02-26T01:32:53;2.17;;;1.20;;
15287;SDS011;7745;48.708;9.026;2024-02-26T01:35:20;3.30;;;1.30;;
15287;SDS011;7745;48.708;9.026;2024-02-26T01:37:47;1.53;;;1.10;;
15287;SDS011;7745;48.708;9.026;2024-02-26T01:40:14;1.53;;;1.23;;
15287;SDS011;7745;48.708;9.026;2024-02-26T01:42:43;1.47;;;1.03;;
15287;SDS011;7745;48.708;9.026;2024-02-26T01:45:12;2.40;;;1.00;;
15287;SDS011;7745;48.708;9.026;2024-02-26T01:47:46;3.43;;;1.30;;
15287;SDS011;7745;48.708;9.026;2024-02-26T01:50:14;2.53;;;1.27;;
15287;SDS011;7745;48.708;9.026;2024-02-26T01:52:41;2.00;;;1.40;;
15287;SDS011;7745;48.708;9.026;2024-02-26T01:55:08;2.43;;;1.33;;
15287;SDS011;7745;48.708;9.026;2024-02-26T01:57:35;3.73;;;1.43;;
15287;SDS011;7745;48.708;9.026;2024-02-26T02:00:02;2.00;;;1.40;;
15287;SDS011;7745;48.708;9.026;2024-02-26T02:02:30;2.20;;;1.17;;
15287;SDS011;7745;48.708;9.026;2024-02-26T02:04:57;1.30;;;1.20;;
15287;SDS011;7745;48.708;9.026;2024-02-26T02:07:26;1.70;;;1.10;;
15287;SDS011;7745;48.708;9.026;2024-02-26T02:09:53;2.57;;;1.60;;
15287;SDS011;7745;48.708;9.026;2024-02-26T02:12:20;1.97;;;1.47;;
15287;SDS011;7745;48.708;9.026;2024-02-26T02:14:48;3.37;;;1.63;;
15287;SDS011;7745;48.708;9.026;2024-02-26T02:17:14;2.53;;;1.50;;
15287;SDS011;7745;48.708;9.026;2024-02-26T02:19:41;1.30;;;1.10;;
15287;SDS011;7745;48.708;9.026;2024-02-26T02:22:09;1.60;;;1.00;;
15287;SDS011;7745;48.708;9.026;2024-02-26T02:24:36;2.03;;;1.20;;
15287;SDS011;7745;48.708;9.026;2024-02-26T02:27:03;1.20;;;1.10;;
15287;SDS011;7745;48.708;9.026;2024-02-26T02:29:31;0.90;;;0.73;;
15287;SDS011;7745;48.708;9.026;2024-02-26T02:31:58;1.63;;;0.80;;
15287;SDS011;7745;48.708;9.026;2024-02-26T02:34:26;1.30;;;0.90;;
15287;SDS011;7745;48.708;9.026;2024-02-26T02:36:54;1.10;;;1.00;;
15287;SDS011;7745;48.708;9.026;2024-02-26T02:39:22;1.23;;;1.10;;
15287;SDS011;7745;48.708;9.026;2024-02-26T02:41:49;1.47;;;1.00;;
15287;SDS011;7745;48.708;9.026;2024-02-26T02:44:16;1.00;;;0.80;;
15287;SDS011;7745;48.708;9.026;2024-02-26T02:46:42;1.00;;;0.90;;
15287;SDS011;7745;48.708;9.026;2024-02-26T02:49:09;0.83;;;0.73;;
15287;SDS011;7745;48.708;9.026;2024-02-26T02:51:36;1.33;;;0.60;;
15287;SDS011;7745;48.708;9.026;2024-02-26T02:54:03;0.80;;;0.53;;
15287;SDS011;7745;48.708;9.026;2024-02-26T02:56:32;0.50;;;0.50;;
15287;SDS011;7745;48.708;9.026;2024-02-26T02:58:58;4.03;;;0.50;;
15287;SDS011;7745;48.708;9.026;2024-02-26T03:01:25;0.40;;;0.40;;
15287;SDS011;7745;48.708;9.026;2024-02-26T03:03:52;0.97;;;0.50;;
15287;SDS011;7745;48.708;9.026;2024-02-26T03:06:19;1.10;;;0.90;;
15287;SDS011;7745;48.708;9.026;2024-02-26T03:08:46;0.73;;;0.47;;
15287;SDS011;7745;48.708;9.026;2024-02-26T03:11:13;0.50;;;0.43;;
15287;SDS011;7745;48.708;9.026;2024-02-26T03:13:42;1.60;;;0.60;;
15287;SDS011;7745;48.708;9.026;2024-02-26T03:16:09;0.60;;;0.50;;
15287;SDS011;7745;48.708;9.026;2024-02-26T03:18:36;0.40;;;0.40;;
15287;SDS011;7745;48.708;9.026;2024-02-26T03:21:04;0.77;;;0.40;;
15287;SDS011;7745;48.708;9.026;2024-02-26T03:23:31;0.40;;;0.40;;
15287;SDS011;7745;48.708;9.026;2024-02-26T03:26:01;0.73;;;0.40;;
15287;SDS011;7745;48.708;9.026;2024-02-26T03:28:28;2.90;;;0.57;;
15287;SDS011;7745;48.708;9.026;2024-02-26T03:30:57;0.40;;;0.40;;
15287;SDS011;7745;48.708;9.026;2024-02-26T03:33:24;1.00;;;0.40;;
15287;SDS011;7745;48.708;9.026;2024-02-26T03:35:51;0.70;;;0.50;;
15287;SDS011;7745;48.708;9.026;2024-02-26T03:38:18;0.60;;;0.40;;
15287;SDS011;7745;48.708;9.026;2024-02-26T03:40:44;0.70;;;0.50;;
15287;SDS011;7745;48.708;9.026;2024-02-26T03:43:11;1.17;;;0.40;;
15287;SDS011;7745;48.708;9.026;2024-02-26T03:45:38;0.50;;;0.50;;
15287;SDS011;7745;48.708;9.026;2024-02-26T03:48:07;1.87;;;0.70;;
15287;SDS011;7745;48.708;9.026;2024-02-26T03:50:34;0.93;;;0.70;;
15287;SDS011;7745;48.708;9.026;2024-02-26T03:53:00;0.90;;;0.90;;
15287;SDS011;7745;48.708;9.026;2024-02-26T03:55:27;0.60;;;0.60;;
15287;SDS011;7745;48.708;9.026;2024-02-26T03:57:54;1.13;;;0.70;;
15287;SDS011;7745;48.708;9.026;2024-02-26T04:00:21;0.53;;;0.53;;
15287;SDS011;7745;48.708;9.026;2024-02-26T04:02:48;0.90;;;0.63;;
15287;SDS011;7745;48.708;9.026;2024-02-26T04:05:16;1.90;;;0.50;;
15287;SDS011;7745;48.708;9.026;2024-02-26T04:07:43;1.33;;;0.60;;
15287;SDS011;7745;48.708;9.026;2024-02-26T04:10:09;0.60;;;0.50;;
15287;SDS011;7745;48.708;9.026;2024-02-26T04:12:38;2.10;;;0.60;;
15287;SDS011;7745;48.708;9.026;2024-02-26T04:15:06;1.30;;;0.80;;
15287;SDS011;7745;48.708;9.026;2024-02-26T04:17:33;0.90;;;0.67;;
15287;SDS011;7745;48.708;9.026;2024-02-26T04:20:00;1.00;;;0.60;;
15287;SDS011;7745;48.708;9.026;2024-02-26T04:22:28;1.37;;;0.77;;
15287;SDS011;7745;48.708;9.026;2024-02-26T04:24:55;0.80;;;0.63;;
15287;SDS011;7745;48.708;9.026;2024-02-26T04:27:21;0.70;;;0.60;;
15287;SDS011;7745;48.708;9.026;2024-02-26T04:29:48;0.77;;;0.60;;
15287;SDS011;7745;48.708;9.026;2024-02-26T04:32:15;1.00;;;0.80;;
15287;SDS011;7745;48.708;9.026;2024-02-26T04:34:42;1.73;;;0.70;;
15287;SDS011;7745;48.708;9.026;2024-02-26T04:37:08;0.67;;;0.60;;
15287;SDS011;7745;48.708;9.026;2024-02-26T04:39:37;1.07;;;0.70;;
15287;SDS011;7745;48.708;9.026;2024-02-26T04:42:04;0.60;;;0.60;;
15287;SDS011;7745;48.708;9.026;2024-02-26T04:44:30;0.90;;;0.73;;
15287;SDS011;7745;48.708;9.026;2024-02-26T04:46:57;0.80;;;0.70;;
15287;SDS011;7745;48.708;9.026;2024-02-26T04:49:26;1.37;;;0.70;;
15287;SDS011;7745;48.708;9.026;2024-02-26T04:51:53;0.80;;;0.77;;
15287;SDS011;7745;48.708;9.026;2024-02-26T04:54:20;1.00;;;0.70;;
15287;SDS011;7745;48.708;9.026;2024-02-26T04:56:48;0.90;;;0.70;;
15287;SDS011;7745;48.708;9.026;2024-02-26T04:59:15;1.13;;;0.90;;
15287;SDS011;7745;48.708;9.026;2024-02-26T05:01:42;1.30;;;0.83;;
15287;SDS011;7745;48.708;9.026;2024-02-26T05:04:08;0.70;;;0.60;;
15287;SDS011;7745;48.708;9.026;2024-02-26T05:06:36;1.07;;;0.97;;
15287;SDS011;7745;48.708;9.026;2024-02-26T05:09:03;1.37;;;1.20;;
15287;SDS011;7745;48.708;9.026;2024-02-26T05:11:30;1.40;;;0.97;;
15287;SDS011;7745;48.708;9.026;2024-02-26T05:13:58;1.63;;;1.13;;
15287;SDS011;7745;48.708;9.026;2024-02-26T05:16:26;1.00;;;0.90;;
15287;SDS011;7745;48.708;9.026;2024-02-26T05:18:55;1.30;;;1.20;;
15287;SDS011;7745;48.708;9.026;2024-02-26T05:21:22;2.60;;;1.30;;
15287;SDS011;7745;48.708;9.026;2024-02-26T05:23:48;1.87;;;1.00;;
15287;SDS011;7745;48.708;9.026;2024-02-26T05:26:19;1.10;;;1.00;;
15287;SDS011;7745;48.708;9.026;2024-02-26T05:28:46;1.50;;;1.40;;
15287;SDS011;7745;48.708;9.026;2024-02-26T05:31:14;2.53;;;1.37;;
15287;SDS011;7745;48.708;9.026;2024-02-26T05:33:42;2.43;;;1.20;;
15287;SDS011;7745;48.708;9.026;2024-02-26T05:36:08;1.30;;;1.20;;
15287;SDS011;7745;48.708;9.026;2024-02-26T05:38:35;1.93;;;1.27;;
15287;SDS011;7745;48.708;9.026;2024-02-26T05:41:02;1.83;;;1.20;;
15287;SDS011;7745;48.708;9.026;2024-02-26T05:43:29;3.47;;;1.20;;
15287;SDS011;7745;48.708;9.026;2024-02-26T05:45:56;1.90;;;1.20;;
15287;SDS011;7745;48.708;9.026;2024-02-26T05:48:24;2.43;;;1.30;;
15287;SDS011;7745;48.708;9.026;2024-02-26T05:50:51;4.43;;;1.30;;
15287;SDS011;7745;48.708;9.026;2024-02-26T05:53:18;1.10;;;1.00;;
15287;SDS011;7745;48.708;9.026;2024-02-26T05:55:57;1.80;;;1.40;;
15287;SDS011;7745;48.708;9.026;2024-02-26T05:58:24;1.30;;;1.20;;
15287;SDS011;7745;48.708;9.026;2024-02-26T06:00:50;1.77;;;1.43;;
15287;SDS011;7745;48.708;9.026;2024-02-26T06:03:17;1.93;;;1.63;;
15287;SDS011;7745;48.708;9.026;2024-02-26T06:05:45;2.83;;;1.40;;
15287;SDS011;7745;48.708;9.026;2024-02-26T06:08:12;1.90;;;1.30;;
15287;SDS011;7745;48.708;9.026;2024-02-26T06:10:39;1.90;;;1.43;;
15287;SDS011;7745;48.708;9.026;2024-02-26T06:13:06;2.83;;;1.40;;
15287;SDS011;7745;48.708;9.026;2024-02-26T06:15:33;1.67;;;1.10;;
15287;SDS011;7745;48.708;9.026;2024-02-26T06:18:05;1.97;;;1.17;;
15287;SDS011;7745;48.708;9.026;2024-02-26T06:20:32;1.30;;;1.10;;
15287;SDS011;7745;48.708;9.026;2024-02-26T06:23:00;1.70;;;1.37;;
15287;SDS011;7745;48.708;9.026;2024-02-26T06:25:27;2.77;;;1.10;;
15287;SDS011;7745;48.708;9.026;2024-02-26T06:27:55;2.17;;;1.10;;
15287;SDS011;7745;48.708;9.026;2024-02-26T06:30:22;1.40;;;1.23;;
15287;SDS011;7745;48.708;9.026;2024-02-26T06:32:48;2.00;;;1.47;;
15287;SDS011;7745;48.708;9.026;2024-02-26T06:35:15;2.70;;;1.43;;
15287;SDS011;7745;48.708;9.026;2024-02-26T06:37:42;3.03;;;1.73;;
15287;SDS011;7745;48.708;9.026;2024-02-26T06:40:11;3.37;;;1.63;;
15287;SDS011;7745;48.708;9.026;2024-02-26T06:42:38;1.70;;;1.60;;
15287;SDS011;7745;48.708;9.026;2024-02-26T06:45:05;2.50;;;2.00;;
15287;SDS011;7745;48.708;9.026;2024-02-26T06:47:32;2.20;;;1.63;;
15287;SDS011;7745;48.708;9.026;2024-02-26T06:49:59;3.77;;;2.67;;
15287;SDS011;7745;48.708;9.026;2024-02-26T06:52:26;2.87;;;1.80;;
15287;SDS011;7745;48.708;9.026;2024-02-26T06:54:53;2.23;;;1.70;;
15287;SDS011;7745;48.708;9.026;2024-02-26T06:57:21;2.47;;;1.70;;
15287;SDS011;7745;48.708;9.026;2024-02-26T06:59:48;2.17;;;1.70;;
15287;SDS011;7745;48.708;9.026;2024-02-26T07:02:15;1.87;;;1.53;;
15287;SDS011;7745;48.708;9.026;2024-02-26T07:04:42;2.73;;;1.70;;
15287;SDS011;7745;48.708;9.026;2024-02-26T07:07:09;4.37;;;2.30;;
15287;SDS011;7745;48.708;9.026;2024-02-26T07:09:36;2.90;;;1.80;;
15287;SDS011;7745;48.708;9.026;2024-02-26T07:12:03;5.00;;;1.70;;
15287;SDS011;7745;48.708;9.026;2024-02-26T07:14:32;2.27;;;1.50;;
15287;SDS011;7745;48.708;9.026;2024-02-26T07:17:00;3.07;;;1.33;;
15287;SDS011;7745;48.708;9.026;2024-02-26T07:19:26;3.07;;;1.27;;
15287;SDS011;7745;48.708;9.026;2024-02-26T07:21:53;4.40;;;1.70;;
15287;SDS011;7745;48.708;9.026;2024-02-26T07:24:20;5.53;;;1.40;;
15287;SDS011;7745;48.708;9.026;2024-02-26T07:26:48;3.33;;;1.60;;
15287;SDS011;7745;48.708;9.026;2024-02-26T07:29:14;1.90;;;1.67;;
15287;SDS011;7745;48.708;9.026;2024-02-26T07:31:49;2.50;;;1.50;;
15287;SDS011;7745;48.708;9.026;2024-02-26T07:34:15;2.77;;;1.70;;
15287;SDS011;7745;48.708;9.026;2024-02-26T07:36:43;3.50;;;1.87;;
15287;SDS011;7745;48.708;9.026;2024-02-26T07:39:10;3.57;;;2.10;;
15287;SDS011;7745;48.708;9.026;2024-02-26T07:41:37;3.47;;;2.07;;
15287;SDS011;7745;48.708;9.026;2024-02-26T07:44:04;2.07;;;1.60;;
15287;SDS011;7745;48.708;9.026;2024-02-26T07:46:31;3.17;;;1.83;;
15287;SDS011;7745;48.708;9.026;2024-02-26T07:48:59;2.77;;;1.90;;
15287;SDS011;7745;48.708;9.026;2024-02-26T07:51:26;3.53;;;2.00;;
15287;SDS011;7745;48.708;9.026;2024-02-26T07:53:53;3.87;;;1.93;;
15287;SDS011;7745;48.708;9.026;2024-02-26T07:56:20;1.70;;;1.60;;
15287;SDS011;7745;48.708;9.026;2024-02-26T07:58:54;2.30;;;1.67;;
15287;SDS011;7745;48.708;9.026;2024-02-26T08:01:22;3.30;;;1.23;;
15287;SDS011;7745;48.708;9.026;2024-02-26T08:03:51;1.37;;;1.23;;
15287;SDS011;7745;48.708;9.026;2024-02-26T08:06:19;3.50;;;1.53;;
15287;SDS011;7745;48.708;9.026;2024-02-26T08:08:46;2.63;;;1.40;;
15287;SDS011;7745;48.708;9.026;2024-02-26T08:11:14;1.27;;;1.17;;
15287;SDS011;7745;48.708;9.026;2024-02-26T08:13:43;1.97;;;1.00;;
15287;SDS011;7745;48.708;9.026;2024-02-26T08:16:11;2.07;;;0.97;;
15287;SDS011;7745;48.708;9.026;2024-02-26T08:18:38;1.87;;;0.90;;
15287;SDS011;7745;48.708;9.026;2024-02-26T08:21:05;1.17;;;0.93;;
15287;SDS011;7745;48.708;9.026;2024-02-26T08:23:35;1.37;;;0.83;;
15287;SDS011;7745;48.708;9.026;2024-02-26T08:26:02;1.93;;;1.20;;
15287;SDS011;7745;48.708;9.026;2024-02-26T08:28:32;1.40;;;1.10;;
15287;SDS011;7745;48.708;9.026;2024-02-26T08:30:59;1.63;;;0.90;;
15287;SDS011;7745;48.708;9.026;2024-02-26T08:33:26;1.13;;;0.93;;
15287;SDS011;7745;48.708;9.026;2024-02-26T08:35:53;1.73;;;1.20;;
15287;SDS011;7745;48.708;9.026;2024-02-26T08:38:21;3.23;;;1.03;;
15287;SDS011;7745;48.708;9.026;2024-02-26T08:40:51;3.27;;;1.17;;
15287;SDS011;7745;48.708;9.026;2024-02-26T08:43:18;5.37;;;2.23;;
15287;SDS011;7745;48.708;9.026;2024-02-26T08:45:45;1.90;;;1.20;;
15287;SDS011;7745;48.708;9.026;2024-02-26T08:48:12;2.03;;;0.93;;
15287;SDS011;7745;48.708;9.026;2024-02-26T08:50:40;1.27;;;0.77;;
15287;SDS011;7745;48.708;9.026;2024-02-26T08:53:07;1.17;;;0.90;;
15287;SDS011;7745;48.708;9.026;2024-02-26T08:55:37;1.57;;;1.10;;
15287;SDS011;7745;48.708;9.026;2024-02-26T08:58:07;1.77;;;0.80;;
15287;SDS011;7745;48.708;9.026;2024-02-26T09:00:34;0.97;;;0.80;;
15287;SDS011;7745;48.708;9.026;2024-02-26T09:03:03;1.73;;;0.90;;
15287;SDS011;7745;48.708;9.026;2024-02-26T09:05:33;0.90;;;0.80;;
15287;SDS011;7745;48.708;9.026;2024-02-26T09:08:00;2.00;;;0.90;;
15287;SDS011;7745;48.708;9.026;2024-02-26T09:10:27;0.93;;;0.73;;
15287;SDS011;7745;48.708;9.026;2024-02-26T09:12:58;0.90;;;0.60;;
15287;SDS011;7745;48.708;9.026;2024-02-26T09:15:31;0.80;;;0.70;;
15287;SDS011;7745;48.708;9.026;2024-02-26T09:17:58;1.00;;;0.60;;
15287;SDS011;7745;48.708;9.026;2024-02-26T09:20:30;0.97;;;0.87;;
15287;SDS011;7745;48.708;9.026;2024-02-26T09:23:00;4.27;;;1.20;;
15287;SDS011;7745;48.708;9.026;2024-02-26T09:25:27;1.20;;;1.00;;
15287;SDS011;7745;48.708;9.026;2024-02-26T09:27:54;0.83;;;0.77;;
15287;SDS011;7745;48.708;9.026;2024-02-26T09:30:23;0.70;;;0.70;;
15287;SDS011;7745;48.708;9.026;2024-02-26T09:32:54;0.80;;;0.70;;
15287;SDS011;7745;48.708;9.026;2024-02-26T09:35:23;0.70;;;0.60;;
15287;SDS011;7745;48.708;9.026;2024-02-26T09:37:54;0.90;;;0.70;;
15287;SDS011;7745;48.708;9.026;2024-02-26T09:40:23;1.10;;;0.80;;
15287;SDS011;7745;48.708;9.026;2024-02-26T09:43:00;1.10;;;0.80;;
15287;SDS011;7745;48.708;9.026;2024-02-26T09:45:29;0.77;;;0.70;;
15287;SDS011;7745;48.708;9.026;2024-02-26T09:48:00;1.80;;;0.70;;
15287;SDS011;7745;48.708;9.026;2024-02-26T09:50:33;0.90;;;0.73;;
15287;SDS011;7745;48.708;9.026;2024-02-26T09:53:04;1.47;;;0.87;;
15287;SDS011;7745;48.708;9.026;2024-02-26T09:55:35;1.63;;;0.73;;
15287;SDS011;7745;48.708;9.026;2024-02-26T09:58:13;1.63;;;0.70;;
15287;SDS011;7745;48.708;9.026;2024-02-26T10:00:47;4.20;;;0.90;;
15287;SDS011;7745;48.708;9.026;2024-02-26T10:03:23;3.43;;;0.80;;
15287;SDS011;7745;48.708;9.026;2024-02-26T10:05:54;2.60;;;0.70;;
15287;SDS011;7745;48.708;9.026;2024-02-26T10:08:37;1.30;;;0.80;;
15287;SDS011;7745;48.708;9.026;2024-02-26T10:11:06;4.33;;;0.70;;
15287;SDS011;7745;48.708;9.026;2024-02-26T10:13:34;3.87;;;0.80;;
15287;SDS011;7745;48.708;9.026;2024-02-26T10:16:01;4.23;;;1.27;;
15287;SDS011;7745;48.708;9.026;2024-02-26T10:21:18;16.43;;;1.90;;
15287;SDS011;7745;48.708;9.026;2024-02-26T10:23:46;4.07;;;0.83;;
15287;SDS011;7745;48.708;9.026;2024-02-26T10:26:15;5.67;;;1.07;;
15287;SDS011;7745;48.708;9.026;2024-02-26T10:28:43;1.27;;;0.90;;
15287;SDS011;7745;48.708;9.026;2024-02-26T10:31:11;10.63;;;1.30;;
15287;SDS011;7745;48.708;9.026;2024-02-26T10:33:40;2.83;;;0.67;;
15287;SDS011;7745;48.708;9.026;2024-02-26T10:36:12;8.23;;;1.00;;
15287;SDS011;7745;48.708;9.026;2024-02-26T10:38:42;8.93;;;1.17;;
15287;SDS011;7745;48.708;9.026;2024-02-26T10:41:12;6.63;;;1.03;;
15287;SDS011;7745;48.708;9.026;2024-02-26T10:47:24;9.57;;;1.47;;
15287;SDS011;7745;48.708;9.026;2024-02-26T10:53:25;9.93;;;1.60;;
15287;SDS011;7745;48.708;9.026;2024-02-26T10:56:01;5.10;;;1.10;;
15287;SDS011;7745;48.708;9.026;2024-02-26T10:58:29;6.83;;;1.90;;
15287;SDS011;7745;48.708;9.026;2024-02-26T11:00:57;3.03;;;1.43;;
15287;SDS011;7745;48.708;9.026;2024-02-26T11:03:24;1.50;;;1.10;;
15287;SDS011;7745;48.708;9.026;2024-02-26T11:05:52;2.03;;;1.10;;
15287;SDS011;7745;48.708;9.026;2024-02-26T11:08:19;2.43;;;0.90;;
15287;SDS011;7745;48.708;9.026;2024-02-26T11:10:52;6.20;;;1.13;;
15287;SDS011;7745;48.708;9.026;2024-02-26T11:13:21;9.73;;;1.23;;
15287;SDS011;7745;48.708;9.026;2024-02-26T11:15:53;19.50;;;2.30;;
15287;SDS011;7745;48.708;9.026;2024-02-26T11:18:22;2.80;;;1.00;;
15287;SDS011;7745;48.708;9.026;2024-02-26T11:20:57;1.27;;;0.90;;
15287;SDS011;7745;48.708;9.026;2024-02-26T11:23:45;2.80;;;0.97;;
15287;SDS011;7745;48.708;9.026;2024-02-26T11:26:24;1.10;;;0.90;;
15287;SDS011;7745;48.708;9.026;2024-02-26T11:28:58;1.70;;;0.80;;
15287;SDS011;7745;48.708;9.026;2024-02-26T11:31:26;6.40;;;0.97;;
15287;SDS011;7745;48.708;9.026;2024-02-26T11:33:52;1.13;;;0.70;;
15287;SDS011;7745;48.708;9.026;2024-02-26T11:36:20;2.87;;;1.00;;
15287;SDS011;7745;48.708;9.026;2024-02-26T11:38:47;2.53;;;0.80;;
15287;SDS011;7745;48.708;9.026;2024-02-26T11:41:16;5.27;;;1.20;;
15287;SDS011;7745;48.708;9.026;2024-02-26T11:43:51;4.77;;;1.17;;
15287;SDS011;7745;48.708;9.026;2024-02-26T11:46:25;4.20;;;0.73;;
15287;SDS011;7745;48.708;9.026;2024-02-26T11:48:55;2.70;;;1.10;;
15287;SDS011;7745;48.708;9.026;2024-02-26T11:51:27;4.10;;;0.93;;
15287;SDS011;7745;48.708;9.026;2024-02-26T11:53:58;5.63;;;1.20;;
15287;SDS011;7745;48.708;9.026;2024-02-26T11:56:25;4.17;;;1.10;;
15287;SDS011;7745;48.708;9.026;2024-02-26T11:58:58;2.77;;;1.20;;
15287;SDS011;7745;48.708;9.026;2024-02-26T12:01:41;2.83;;;1.00;;
15287;SDS011;7745;48.708;9.026;2024-02-26T12:04:13;1.53;;;0.90;;
15287;SDS011;7745;48.708;9.026;2024-02-26T12:06:42;1.53;;;0.90;;
15287;SDS011;7745;48.708;9.026;2024-02-26T12:09:13;3.63;;;0.90;;
15287;SDS011;7745;48.708;9.026;2024-02-26T12:11:57;3.90;;;1.20;;
15287;SDS011;7745;48.708;9.026;2024-02-26T12:14:26;4.60;;;1.27;;
15287;SDS011;7745;48.708;9.026;2024-02-26T12:16:54;3.70;;;1.30;;
15287;SDS011;7745;48.708;9.026;2024-02-26T12:19:23;4.37;;;1.53;;
15287;SDS011;7745;48.708;9.026;2024-02-26T12:21:51;3.73;;;1.10;;
15287;SDS011;7745;48.708;9.026;2024-02-26T12:24:20;2.60;;;1.43;;
15287;SDS011;7745;48.708;9.026;2024-02-26T12:26:47;1.50;;;0.87;;
15287;SDS011;7745;48.708;9.026;2024-02-26T12:29:14;6.23;;;1.37;;
15287;SDS011;7745;48.708;9.026;2024-02-26T12:31:43;1.93;;;1.20;;
15287;SDS011;7745;48.708;9.026;2024-02-26T12:34:10;2.73;;;1.10;;
15287;SDS011;7745;48.708;9.026;2024-02-26T12:36:41;3.20;;;1.30;;
15287;SDS011;7745;48.708;9.026;2024-02-26T12:39:08;6.40;;;1.30;;
15287;SDS011;7745;48.708;9.026;2024-02-26T12:41:37;2.93;;;1.20;;
15287;SDS011;7745;48.708;9.026;2024-02-26T12:44:09;3.07;;;1.40;;
15287;SDS011;7745;48.708;9.026;2024-02-26T12:46:38;1.10;;;0.83;;
15287;SDS011;7745;48.708;9.026;2024-02-26T12:49:07;4.83;;;1.27;;
15287;SDS011;7745;48.708;9.026;2024-02-26T12:51:34;3.03;;;1.00;;
15287;SDS011;7745;48.708;9.026;2024-02-26T12:54:01;3.90;;;1.20;;
15287;SDS011;7745;48.708;9.026;2024-02-26T12:56:28;1.57;;;0.90;;
15287;SDS011;7745;48.708;9.026;2024-02-26T12:58:56;3.60;;;1.30;;
15287;SDS011;7745;48.708;9.026;2024-02-26T13:01:23;3.93;;;0.80;;
15287;SDS011;7745;48.708;9.026;2024-02-26T13:03:51;2.20;;;1.10;;
15287;SDS011;7745;48.708;9.026;2024-02-26T13:06:20;1.10;;;0.60;;
15287;SDS011;7745;48.708;9.026;2024-02-26T13:08:48;1.27;;;0.87;;
15287;SDS011;7745;48.708;9.026;2024-02-26T13:11:15;0.73;;;0.47;;
15287;SDS011;7745;48.708;9.026;2024-02-26T13:13:47;1.10;;;0.40;;
15287;SDS011;7745;48.708;9.026;2024-02-26T13:16:15;2.10;;;0.60;;
15287;SDS011;7745;48.708;9.026;2024-02-26T13:18:42;0.97;;;0.47;;
15287;SDS011;7745;48.708;9.026;2024-02-26T13:21:10;1.77;;;0.67;;
15287;SDS011;7745;48.708;9.026;2024-02-26T13:23:39;0.60;;;0.33;;
15287;SDS011;7745;48.708;9.026;2024-02-26T13:26:06;1.10;;;0.50;;
15287;SDS011;7745;48.708;9.026;2024-02-26T13:28:34;1.37;;;0.40;;
15287;SDS011;7745;48.708;9.026;2024-02-26T13:31:01;1.43;;;0.50;;
15287;SDS011;7745;48.708;9.026;2024-02-26T13:33:29;0.83;;;0.60;;
15287;SDS011;7745;48.708;9.026;2024-02-26T13:35:57;0.97;;;0.47;;
15287;SDS011;7745;48.708;9.026;2024-02-26T13:38:25;1.63;;;0.50;;
15287;SDS011;7745;48.708;9.026;2024-02-26T13:40:54;1.33;;;0.50;;
15287;SDS011;7745;48.708;9.026;2024-02-26T13:43:22;1.93;;;0.70;;
15287;SDS011;7745;48.708;9.026;2024-02-26T13:45:48;1.10;;;0.50;;
15287;SDS011;7745;48.708;9.026;2024-02-26T13:48:15;2.00;;;0.50;;
15287;SDS011;7745;48.708;9.026;2024-02-26T13:50:42;1.90;;;0.67;;
15287;SDS011;7745;48.708;9.026;2024-02-26T13:53:11;1.10;;;0.60;;
15287;SDS011;7745;48.708;9.026;2024-02-26T13:55:39;1.53;;;0.47;;
15287;SDS011;7745;48.708;9.026;2024-02-26T13:58:09;3.23;;;0.50;;
15287;SDS011;7745;48.708;9.026;2024-02-26T14:00:38;1.27;;;0.30;;
15287;SDS011;7745;48.708;9.026;2024-02-26T14:03:06;0.93;;;0.50;;
15287;SDS011;7745;48.708;9.026;2024-02-26T14:05:33;2.13;;;0.40;;
15287;SDS011;7745;48.708;9.026;2024-02-26T14:08:00;0.40;;;0.20;;
15287;SDS011;7745;48.708;9.026;2024-02-26T14:10:28;2.63;;;0.63;;
15287;SDS011;7745;48.708;9.026;2024-02-26T14:12:55;2.23;;;0.60;;
15287;SDS011;7745;48.708;9.026;2024-02-26T14:15:26;1.70;;;0.40;;
15287;SDS011;7745;48.708;9.026;2024-02-26T14:17:56;0.60;;;0.50;;
15287;SDS011;7745;48.708;9.026;2024-02-26T14:20:23;0.87;;;0.50;;
15287;SDS011;7745;48.708;9.026;2024-02-26T14:22:51;1.40;;;0.60;;
15287;SDS011;7745;48.708;9.026;2024-02-26T14:25:19;1.60;;;0.70;;
15287;SDS011;7745;48.708;9.026;2024-02-26T14:27:46;0.70;;;0.67;;
15287;SDS011;7745;48.708;9.026;2024-02-26T14:30:13;0.70;;;0.50;;
15287;SDS011;7745;48.708;9.026;2024-02-26T14:32:44;1.80;;;0.53;;
15287;SDS011;7745;48.708;9.026;2024-02-26T14:35:13;0.87;;;0.60;;
15287;SDS011;7745;48.708;9.026;2024-02-26T14:37:40;2.10;;;0.70;;
15287;SDS011;7745;48.708;9.026;2024-02-26T14:40:07;0.50;;;0.50;;
15287;SDS011;7745;48.708;9.026;2024-02-26T14:42:34;1.77;;;0.60;;
15287;SDS011;7745;48.708;9.026;2024-02-26T14:45:02;1.67;;;1.17;;
15287;SDS011;7745;48.708;9.026;2024-02-26T14:47:31;2.90;;;1.30;;
15287;SDS011;7745;48.708;9.026;2024-02-26T14:49:59;1.00;;;0.90;;
15287;SDS011;7745;48.708;9.026;2024-02-26T14:52:26;1.67;;;0.87;;
15287;SDS011;7745;48.708;9.026;2024-02-26T14:54:53;1.33;;;1.00;;
15287;SDS011;7745;48.708;9.026;2024-02-26T14:57:20;1.67;;;1.00;;
15287;SDS011;7745;48.708;9.026;2024-02-26T14:59:52;2.30;;;1.20;;
15287;SDS011;7745;48.708;9.026;2024-02-26T15:02:42;1.40;;;1.10;;
15287;SDS011;7745;48.708;9.026;2024-02-26T15:05:37;2.47;;;1.20;;
15287;SDS011;7745;48.708;9.026;2024-02-26T15:08:04;1.10;;;1.00;;
15287;SDS011;7745;48.708;9.026;2024-02-26T15:10:34;3.37;;;1.20;;
15287;SDS011;7745;48.708;9.026;2024-02-26T15:13:01;2.53;;;0.83;;
15287;SDS011;7745;48.708;9.026;2024-02-26T15:15:29;2.20;;;1.00;;
15287;SDS011;7745;48.708;9.026;2024-02-26T15:17:56;1.53;;;0.90;;